Time;durP1;ratioP1;P1;durP2;ratioP2;P2;SDS_P1;SDS_P2;PMS_P1;PMS_P2;Temp;Humidity;BMP_temperature;BMP_pressure;BME280_temperature;BME280_humidity;BME280_pressure;Samples;Min_cycle;Max_cycle;Signal;HPM_P1;HPM_P2
2022/09/22 00:00:00;;;;;;;;;5.50;5.00;;;;;;;;5091700;27;51126;-51
2022/09/22 00:02:26;;;;;;;;;7.25;7.00;;;;;;;;5072330;27;51174;-56
2022/09/22 00:04:51;;;;;;;;;8.25;8.25;;;;;;;;5080576;27;51148;-51
2022/09/22 00:07:16;;;;;;;;;7.25;7.25;;;;;;;;5085347;27;52226;-53
2022/09/22 00:09:41;;;;;;;;;9.00;9.00;;;;;;;;5083609;27;51156;-54
2022/09/22 00:12:07;;;;;;;;;10.50;10.25;;;;;;;;5082084;27;50954;-53
2022/09/22 00:14:32;;;;;;;;;8.00;7.25;;;;;;;;5084121;27;51147;-53
2022/09/22 00:16:59;;;;;;;;;10.00;10.00;;;;;;;;5092447;27;52254;-53
2022/09/22 00:19:25;;;;;;;;;8.00;7.50;;;;;;;;5077219;27;51151;-51
2022/09/22 00:21:50;;;;;;;;;8.50;8.00;;;;;;;;5088847;27;51595;-53
2022/09/22 00:24:16;;;;;;;;;5.00;4.75;;;;;;;;5085754;27;51121;-53
2022/09/22 00:26:42;;;;;;;;;8.25;8.25;;;;;;;;5084942;27;53488;-53
2022/09/22 00:29:08;;;;;;;;;8.75;8.75;;;;;;;;5074561;27;51196;-53
2022/09/22 00:31:34;;;;;;;;;7.75;7.00;;;;;;;;5086600;27;51202;-53
2022/09/22 00:33:59;;;;;;;;;8.25;7.25;;;;;;;;5083613;27;51162;-54
2022/09/22 00:36:25;;;;;;;;;9.25;9.25;;;;;;;;5076133;27;51276;-53
2022/09/22 00:38:50;;;;;;;;;9.00;8.50;;;;;;;;5074920;27;51007;-53
2022/09/22 00:41:21;;;;;;;;;10.00;8.75;;;;;;;;5084092;27;51092;-53
2022/09/22 00:43:47;;;;;;;;;7.75;7.75;;;;;;;;5076868;27;51131;-51
2022/09/22 00:46:24;;;;;;;;;7.50;6.75;;;;;;;;5078947;27;51712;-53
2022/09/22 00:48:53;;;;;;;;;8.75;7.75;;;;;;;;5075458;27;51276;-52
2022/09/22 00:51:21;;;;;;;;;7.50;7.50;;;;;;;;5089091;27;50977;-53
2022/09/22 00:53:47;;;;;;;;;9.75;8.00;;;;;;;;5083392;27;51390;-51
2022/09/22 00:56:18;;;;;;;;;8.00;7.75;;;;;;;;5088233;27;52808;-52
2022/09/22 00:58:47;;;;;;;;;8.00;8.00;;;;;;;;5092436;27;51010;-53
2022/09/22 01:01:14;;;;;;;;;7.00;7.00;;;;;;;;5086402;27;51260;-54
2022/09/22 01:03:39;;;;;;;;;9.25;9.00;;;;;;;;5084765;27;51157;-53
2022/09/22 01:06:06;;;;;;;;;9.25;9.00;;;;;;;;5076860;27;51837;-53
2022/09/22 01:08:33;;;;;;;;;7.75;7.50;;;;;;;;5083078;27;51262;-52
2022/09/22 01:10:58;;;;;;;;;10.50;8.00;;;;;;;;5080571;27;51091;-52
2022/09/22 01:13:26;;;;;;;;;10.00;9.00;;;;;;;;5077285;27;51605;-52
2022/09/22 01:16:03;;;;;;;;;9.25;8.50;;;;;;;;5080455;27;51207;-54
2022/09/22 01:18:31;;;;;;;;;9.50;9.50;;;;;;;;5078232;27;51063;-52
2022/09/22 01:21:19;;;;;;;;;7.75;7.50;;;;;;;;5094661;27;51074;-51
2022/09/22 01:23:50;;;;;;;;;9.00;9.00;;;;;;;;5080925;27;51226;-54
2022/09/22 01:26:21;;;;;;;;;7.50;7.50;;;;;;;;5091144;27;52051;-53
2022/09/22 01:29:05;;;;;;;;;11.50;9.25;;;;;;;;5077790;27;51097;-52
2022/09/22 01:31:40;;;;;;;;;8.75;8.50;;;;;;;;5090626;27;51380;-52
2022/09/22 01:34:05;;;;;;;;;8.00;7.00;;;;;;;;5075926;27;51385;-54
2022/09/22 01:36:41;;;;;;;;;8.25;8.25;;;;;;;;5090300;27;51763;-52
2022/09/22 01:39:14;;;;;;;;;9.50;8.75;;;;;;;;5079252;27;51060;-53
2022/09/22 01:41:50;;;;;;;;;10.00;8.75;;;;;;;;5086250;27;51192;-55
2022/09/22 01:44:24;;;;;;;;;7.25;7.25;;;;;;;;5080368;27;52085;-53
2022/09/22 01:46:56;;;;;;;;;12.50;10.75;;;;;;;;5081246;27;53154;-54
2022/09/22 01:49:23;;;;;;;;;9.00;8.00;;;;;;;;5077339;27;51014;-53
2022/09/22 01:51:54;;;;;;;;;8.75;8.75;;;;;;;;5081789;27;51097;-53
2022/09/22 01:54:23;;;;;;;;;7.25;7.25;;;;;;;;5071813;27;51391;-51
2022/09/22 01:56:51;;;;;;;;;8.75;8.75;;;;;;;;5076621;27;51950;-51
2022/09/22 01:59:18;;;;;;;;;11.00;10.75;;;;;;;;5075257;27;51163;-51
2022/09/22 02:01:46;;;;;;;;;10.25;9.00;;;;;;;;5087402;27;51111;-52
2022/09/22 02:04:14;;;;;;;;;9.00;9.00;;;;;;;;5088227;27;51087;-51
2022/09/22 02:06:43;;;;;;;;;10.00;9.50;;;;;;;;5081228;27;51944;-51
2022/09/22 02:09:11;;;;;;;;;9.00;9.00;;;;;;;;5072710;27;51515;-50
2022/09/22 02:11:36;;;;;;;;;6.25;6.25;;;;;;;;5073625;27;51304;-53
2022/09/22 02:14:02;;;;;;;;;7.75;7.25;;;;;;;;5073295;27;51078;-52
2022/09/22 02:16:28;;;;;;;;;8.00;8.00;;;;;;;;5079955;27;51219;-52
2022/09/22 02:19:15;;;;;;;;;9.00;9.00;;;;;;;;5075914;27;51028;-50
2022/09/22 02:21:43;;;;;;;;;6.75;6.75;;;;;;;;5089500;27;51141;-53
2022/09/22 02:24:26;;;;;;;;;8.00;8.00;;;;;;;;5072794;27;51079;-53
2022/09/22 02:26:51;;;;;;;;;9.00;9.00;;;;;;;;5072099;27;50988;-53
2022/09/22 02:29:17;;;;;;;;;7.00;7.00;;;;;;;;5073087;27;50898;-53
2022/09/22 02:31:42;;;;;;;;;10.50;10.00;;;;;;;;5073151;27;50981;-53
2022/09/22 02:34:07;;;;;;;;;9.75;8.00;;;;;;;;5074260;27;51146;-53
2022/09/22 02:37:08;;;;;;;;;8.75;8.75;;;;;;;;5077766;27;53989;-53
2022/09/22 02:39:44;;;;;;;;;10.50;9.25;;;;;;;;5057186;28;51054;-53
2022/09/22 02:42:16;;;;;;;;;9.50;9.50;;;;;;;;5084388;27;51061;-56
2022/09/22 02:44:44;;;;;;;;;10.50;9.75;;;;;;;;5076222;27;51045;-53
2022/09/22 02:47:12;;;;;;;;;9.00;8.00;;;;;;;;5073518;27;52244;-54
2022/09/22 02:49:38;;;;;;;;;8.00;8.00;;;;;;;;5083546;27;51256;-50
2022/09/22 02:52:07;;;;;;;;;6.75;6.75;;;;;;;;5080385;27;51326;-51
2022/09/22 02:54:32;;;;;;;;;6.50;6.50;;;;;;;;5072679;27;51958;-53
2022/09/22 02:56:57;;;;;;;;;9.00;8.25;;;;;;;;5075838;27;52011;-53
2022/09/22 02:59:23;;;;;;;;;8.50;7.50;;;;;;;;5073872;27;51093;-50
2022/09/22 03:01:48;;;;;;;;;7.00;7.00;;;;;;;;5084169;27;51130;-53
2022/09/22 03:04:13;;;;;;;;;8.50;8.00;;;;;;;;5080456;27;51056;-52
2022/09/22 03:06:39;;;;;;;;;6.50;6.00;;;;;;;;5086429;27;52036;-51
2022/09/22 03:09:04;;;;;;;;;8.50;7.00;;;;;;;;5076822;27;51177;-52
2022/09/22 03:11:29;;;;;;;;;6.50;6.50;;;;;;;;5075982;27;51031;-53
2022/09/22 03:13:54;;;;;;;;;9.00;8.00;;;;;;;;5086436;27;51023;-53
2022/09/22 03:16:20;;;;;;;;;6.75;6.25;;;;;;;;5089096;27;52070;-52
2022/09/22 03:18:45;;;;;;;;;12.00;10.75;;;;;;;;5079170;27;52387;-53
2022/09/22 03:21:10;;;;;;;;;7.00;7.00;;;;;;;;5094093;27;51072;-51
2022/09/22 03:23:35;;;;;;;;;12.00;10.50;;;;;;;;5094893;27;51275;-52
2022/09/22 03:26:01;;;;;;;;;7.75;7.75;;;;;;;;5083189;27;52202;-50
2022/09/22 03:28:26;;;;;;;;;11.75;9.50;;;;;;;;5076796;27;51898;-52
2022/09/22 03:30:51;;;;;;;;;9.00;7.00;;;;;;;;5077040;27;51031;-53
2022/09/22 03:33:16;;;;;;;;;11.50;10.75;;;;;;;;5075784;27;51436;-53
2022/09/22 03:35:41;;;;;;;;;7.00;6.00;;;;;;;;5075910;27;51269;-52
2022/09/22 03:38:07;;;;;;;;;10.75;7.00;;;;;;;;5075185;27;50998;-50
2022/09/22 03:40:32;;;;;;;;;15.00;14.50;;;;;;;;5080414;27;51065;-53
2022/09/22 03:42:57;;;;;;;;;8.25;7.50;;;;;;;;5087500;27;50925;-50
2022/09/22 03:45:23;;;;;;;;;7.50;7.25;;;;;;;;5092010;27;51147;-49
2022/09/22 03:47:48;;;;;;;;;11.00;9.75;;;;;;;;5075630;27;51016;-53
2022/09/22 03:50:14;;;;;;;;;7.00;7.00;;;;;;;;5074143;27;51123;-49
2022/09/22 03:52:41;;;;;;;;;9.25;8.75;;;;;;;;5081931;27;51069;-54
2022/09/22 03:55:07;;;;;;;;;7.25;7.25;;;;;;;;5094904;27;51325;-53
2022/09/22 03:57:32;;;;;;;;;9.25;8.25;;;;;;;;5093984;27;51010;-53
2022/09/22 03:59:58;;;;;;;;;9.25;9.00;;;;;;;;5077984;27;52066;-52
2022/09/22 04:02:23;;;;;;;;;11.50;9.25;;;;;;;;5076575;27;51821;-52
2022/09/22 04:04:48;;;;;;;;;10.25;9.75;;;;;;;;5075636;27;51314;-52
2022/09/22 04:07:13;;;;;;;;;8.50;8.00;;;;;;;;5088867;27;51704;-54
2022/09/22 04:09:40;;;;;;;;;8.75;7.50;;;;;;;;5090695;27;51147;-52
2022/09/22 04:12:06;;;;;;;;;10.50;10.50;;;;;;;;5093283;27;52487;-51
2022/09/22 04:14:31;;;;;;;;;9.25;8.75;;;;;;;;5074379;27;52178;-53
2022/09/22 04:16:56;;;;;;;;;7.25;7.25;;;;;;;;5082277;27;51391;-52
2022/09/22 04:19:21;;;;;;;;;9.00;9.00;;;;;;;;5078229;27;50985;-54
2022/09/22 04:21:47;;;;;;;;;10.75;10.50;;;;;;;;5074866;27;50959;-54
2022/09/22 04:24:12;;;;;;;;;7.50;7.50;;;;;;;;5082721;27;51899;-53
2022/09/22 04:26:37;;;;;;;;;7.75;7.75;;;;;;;;5095652;27;51011;-52
2022/09/22 04:29:03;;;;;;;;;9.25;8.25;;;;;;;;5074383;27;51187;-51
2022/09/22 04:31:28;;;;;;;;;11.00;9.75;;;;;;;;5074409;27;51073;-53
2022/09/22 04:33:54;;;;;;;;;9.75;9.75;;;;;;;;5094890;27;52388;-51
2022/09/22 04:36:19;;;;;;;;;8.50;8.50;;;;;;;;5082456;27;51212;-54
2022/09/22 04:38:44;;;;;;;;;9.00;8.75;;;;;;;;5074766;27;51059;-53
2022/09/22 04:41:09;;;;;;;;;10.50;8.75;;;;;;;;5087082;27;51385;-51
2022/09/22 04:43:34;;;;;;;;;11.00;10.00;;;;;;;;5077100;27;51127;-49
2022/09/22 04:46:00;;;;;;;;;8.25;8.25;;;;;;;;5079259;27;51068;-51
2022/09/22 04:48:25;;;;;;;;;8.00;8.00;;;;;;;;5075478;27;51101;-53
2022/09/22 04:50:51;;;;;;;;;11.00;10.75;;;;;;;;5079982;27;50874;-50
2022/09/22 04:53:16;;;;;;;;;8.25;8.25;;;;;;;;5074655;27;50943;-50
2022/09/22 04:55:41;;;;;;;;;10.50;10.50;;;;;;;;5074773;27;51035;-50
2022/09/22 04:58:07;;;;;;;;;10.75;10.75;;;;;;;;5074944;27;51261;-50
2022/09/22 05:00:33;;;;;;;;;11.75;9.50;;;;;;;;5076430;27;51079;-54
2022/09/22 05:03:00;;;;;;;;;11.50;10.75;;;;;;;;5074738;27;51086;-51
2022/09/22 05:05:26;;;;;;;;;10.50;10.50;;;;;;;;5080939;27;51122;-51
2022/09/22 05:07:54;;;;;;;;;11.75;11.00;;;;;;;;5072663;27;51184;-54
2022/09/22 05:10:24;;;;;;;;;12.00;11.75;;;;;;;;5073390;27;51426;-54
2022/09/22 05:12:49;;;;;;;;;10.00;9.75;;;;;;;;5093753;27;50955;-54
2022/09/22 05:15:14;;;;;;;;;11.25;10.75;;;;;;;;5081458;27;51190;-50
2022/09/22 05:17:50;;;;;;;;;15.50;13.00;;;;;;;;5075082;27;51185;-53
2022/09/22 05:20:16;;;;;;;;;12.75;11.75;;;;;;;;5078053;27;52764;-52
2022/09/22 05:22:41;;;;;;;;;12.50;11.50;;;;;;;;5078166;27;52018;-52
2022/09/22 05:25:08;;;;;;;;;11.00;10.75;;;;;;;;5076365;27;51151;-52
2022/09/22 05:27:33;;;;;;;;;12.25;11.75;;;;;;;;5075420;27;51075;-51
2022/09/22 05:29:58;;;;;;;;;11.00;11.00;;;;;;;;5075492;27;51249;-54
2022/09/22 05:32:23;;;;;;;;;12.25;11.50;;;;;;;;5077131;27;51191;-53
2022/09/22 05:34:48;;;;;;;;;10.00;10.00;;;;;;;;5073423;27;51135;-53
2022/09/22 05:37:14;;;;;;;;;13.25;10.00;;;;;;;;5086758;27;51176;-53
2022/09/22 05:39:39;;;;;;;;;12.00;12.00;;;;;;;;5090222;27;51241;-50
2022/09/22 05:42:04;;;;;;;;;8.25;7.25;;;;;;;;5074301;27;52152;-52
2022/09/22 05:44:29;;;;;;;;;11.75;11.75;;;;;;;;5072532;27;50947;-52
2022/09/22 05:46:54;;;;;;;;;12.00;12.00;;;;;;;;5077656;27;51212;-53
2022/09/22 05:49:20;;;;;;;;;11.50;11.25;;;;;;;;5073900;27;51320;-53
2022/09/22 05:51:45;;;;;;;;;13.00;12.00;;;;;;;;5073438;27;51281;-50
2022/09/22 05:54:11;;;;;;;;;12.00;11.00;;;;;;;;5085030;27;51050;-50
2022/09/22 05:56:36;;;;;;;;;10.00;9.25;;;;;;;;5076622;27;50946;-51
2022/09/22 05:59:01;;;;;;;;;14.00;12.50;;;;;;;;5075183;27;50955;-52
2022/09/22 06:01:26;;;;;;;;;13.00;13.00;;;;;;;;5084835;27;51318;-53
2022/09/22 06:03:52;;;;;;;;;15.25;13.50;;;;;;;;5077657;27;51243;-50
2022/09/22 06:06:17;;;;;;;;;15.50;13.50;;;;;;;;5072430;27;50935;-53
2022/09/22 06:08:42;;;;;;;;;16.00;15.50;;;;;;;;5079566;27;51086;-53
2022/09/22 06:11:07;;;;;;;;;15.75;14.25;;;;;;;;5075375;27;52202;-54
2022/09/22 06:13:33;;;;;;;;;16.00;14.75;;;;;;;;5076010;27;51044;-50
2022/09/22 06:16:02;;;;;;;;;15.75;15.00;;;;;;;;5077984;27;51098;-53
2022/09/22 06:18:28;;;;;;;;;13.50;13.00;;;;;;;;5073011;27;51184;-54
2022/09/22 06:20:55;;;;;;;;;15.25;14.25;;;;;;;;5072343;27;51654;-53
2022/09/22 06:23:20;;;;;;;;;14.00;13.25;;;;;;;;5090451;27;51138;-54
2022/09/22 06:25:45;;;;;;;;;12.50;11.75;;;;;;;;5077388;27;50890;-51
2022/09/22 06:28:13;;;;;;;;;14.75;14.25;;;;;;;;5075747;27;50854;-52
2022/09/22 06:30:41;;;;;;;;;11.75;11.00;;;;;;;;5080912;27;51180;-54
2022/09/22 06:33:07;;;;;;;;;14.50;14.50;;;;;;;;5071807;27;51076;-53
2022/09/22 06:35:36;;;;;;;;;18.00;18.00;;;;;;;;5085545;27;51157;-53
2022/09/22 06:38:02;;;;;;;;;14.75;14.00;;;;;;;;5078436;27;51210;-53
2022/09/22 06:40:28;;;;;;;;;14.75;14.00;;;;;;;;5080787;27;51267;-52
2022/09/22 06:43:09;;;;;;;;;14.50;14.00;;;;;;;;5088009;27;51310;-53
2022/09/22 06:45:34;;;;;;;;;16.50;16.50;;;;;;;;5069626;27;51428;-54
2022/09/22 06:48:00;;;;;;;;;15.75;14.75;;;;;;;;5077391;27;51155;-53
2022/09/22 06:50:30;;;;;;;;;14.25;13.50;;;;;;;;5073195;27;51910;-54
2022/09/22 06:52:58;;;;;;;;;16.50;16.00;;;;;;;;5078814;27;51792;-53
2022/09/22 06:55:23;;;;;;;;;16.50;15.00;;;;;;;;5087795;27;51066;-53
2022/09/22 06:57:50;;;;;;;;;15.50;15.50;;;;;;;;5085086;27;51738;-52
2022/09/22 07:00:16;;;;;;;;;13.25;12.75;;;;;;;;5076219;27;52504;-53
2022/09/22 07:02:41;;;;;;;;;15.50;12.00;;;;;;;;5074727;27;50999;-54
2022/09/22 07:05:07;;;;;;;;;16.50;15.75;;;;;;;;5071244;27;51133;-50
2022/09/22 07:07:32;;;;;;;;;19.00;18.50;;;;;;;;5069440;27;51135;-53
2022/09/22 07:09:57;;;;;;;;;18.50;17.25;;;;;;;;5089382;27;51277;-53
2022/09/22 07:12:24;;;;;;;;;19.00;17.50;;;;;;;;5076439;27;51191;-54
2022/09/22 07:14:51;;;;;;;;;18.50;17.25;;;;;;;;5080310;27;51045;-54
2022/09/22 07:17:16;;;;;;;;;17.00;16.00;;;;;;;;5095886;27;51121;-54
2022/09/22 07:19:42;;;;;;;;;16.75;15.75;;;;;;;;5086317;27;52053;-55
2022/09/22 07:22:07;;;;;;;;;19.00;17.25;;;;;;;;5071932;27;51152;-54
2022/09/22 07:24:32;;;;;;;;;16.75;16.00;;;;;;;;5078390;27;51295;-55
2022/09/22 07:27:03;;;;;;;;;17.50;17.25;;;;;;;;5080264;27;51147;-52
2022/09/22 07:29:28;;;;;;;;;19.25;18.75;;;;;;;;5083493;27;52917;-54
2022/09/22 07:31:55;;;;;;;;;16.50;16.50;;;;;;;;5083997;27;51003;-54
2022/09/22 07:34:20;;;;;;;;;16.50;15.50;;;;;;;;5076904;27;51157;-53
2022/09/22 07:36:47;;;;;;;;;20.00;17.50;;;;;;;;5083309;27;51059;-54
2022/09/22 07:39:13;;;;;;;;;18.00;17.00;;;;;;;;5082227;27;51123;-55
2022/09/22 07:41:42;;;;;;;;;20.25;19.00;;;;;;;;5071264;27;51127;-52
2022/09/22 07:46:54;;;;;;;;;16.75;16.00;;;;;;;;5079642;27;51898;-55
2022/09/22 07:49:21;;;;;;;;;20.00;18.00;;;;;;;;5074704;27;52045;-55
2022/09/22 07:51:47;;;;;;;;;20.00;19.00;;;;;;;;5074703;27;51114;-55
2022/09/22 07:54:12;;;;;;;;;15.75;15.75;;;;;;;;5082877;27;51171;-54
2022/09/22 07:56:41;;;;;;;;;15.75;15.50;;;;;;;;5074850;28;51099;-55
2022/09/22 07:59:10;;;;;;;;;19.25;19.25;;;;;;;;5074595;27;51885;-54
2022/09/22 08:01:37;;;;;;;;;19.00;18.25;;;;;;;;5081923;27;51052;-55
2022/09/22 08:04:03;;;;;;;;;18.50;18.50;;;;;;;;5074747;27;51004;-56
2022/09/22 08:06:29;;;;;;;;;18.75;15.25;;;;;;;;5073318;28;51284;-55
2022/09/22 08:08:55;;;;;;;;;19.00;18.25;;;;;;;;5073874;27;51123;-53
2022/09/22 08:11:22;;;;;;;;;17.50;16.75;;;;;;;;5074667;27;50930;-54
2022/09/22 08:13:52;;;;;;;;;20.50;20.00;;;;;;;;5074662;27;51076;-55
2022/09/22 08:16:17;;;;;;;;;19.00;17.25;;;;;;;;5076119;27;50915;-56
2022/09/22 08:18:43;;;;;;;;;17.75;17.00;;;;;;;;5074000;27;52896;-54
2022/09/22 08:21:08;;;;;;;;;18.75;18.25;;;;;;;;5073495;27;51208;-54
2022/09/22 08:23:34;;;;;;;;;19.75;19.75;;;;;;;;5073974;28;51255;-52
2022/09/22 08:26:07;;;;;;;;;20.00;20.00;;;;;;;;5074556;28;51219;-55
2022/09/22 08:28:33;;;;;;;;;14.50;14.50;;;;;;;;5074739;27;51732;-55
2022/09/22 08:30:58;;;;;;;;;17.25;15.75;;;;;;;;5093447;27;51200;-55
2022/09/22 08:33:25;;;;;;;;;18.00;16.50;;;;;;;;5074341;27;51153;-54
2022/09/22 08:35:52;;;;;;;;;16.75;15.75;;;;;;;;5074636;27;51118;-53
2022/09/22 08:38:17;;;;;;;;;17.50;17.00;;;;;;;;5073532;27;52027;-54
2022/09/22 08:40:46;;;;;;;;;17.50;17.50;;;;;;;;5080966;27;50891;-54
2022/09/22 08:43:11;;;;;;;;;21.75;20.50;;;;;;;;5095080;27;51059;-53
2022/09/22 08:45:38;;;;;;;;;17.00;16.75;;;;;;;;5095185;27;50947;-53
2022/09/22 08:53:50;;;;;;;;;13.25;13.25;;;;;;;;5084780;27;51292;-55
2022/09/22 08:56:29;;;;;;;;;14.50;14.50;;;;;;;;5073554;27;51361;-56
2022/09/22 08:58:57;;;;;;;;;16.25;15.25;;;;;;;;5072371;27;51065;-56
2022/09/22 09:01:44;;;;;;;;;16.00;15.67;;;;;;;;5079499;27;51075;-55
2022/09/22 09:04:09;;;;;;;;;14.50;14.25;;;;;;;;5073778;27;50845;-55
2022/09/22 09:06:41;;;;;;;;;14.25;14.25;;;;;;;;5073068;28;51009;-55
2022/09/22 09:09:09;;;;;;;;;14.75;14.75;;;;;;;;5071840;28;52603;-56
2022/09/22 09:11:54;;;;;;;;;15.50;15.25;;;;;;;;5074164;27;50965;-56
2022/09/22 09:14:22;;;;;;;;;14.00;13.25;;;;;;;;5073956;27;50913;-56
2022/09/22 09:16:50;;;;;;;;;16.67;15.00;;;;;;;;5075092;27;51287;-55
2022/09/22 09:19:37;;;;;;;;;15.00;15.00;;;;;;;;5073796;27;51940;-55
2022/09/22 09:22:08;;;;;;;;;16.00;15.25;;;;;;;;5073842;27;51167;-56
2022/09/22 09:24:44;;;;;;;;;15.00;14.75;;;;;;;;5074067;27;51045;-55
2022/09/22 09:27:13;;;;;;;;;18.75;18.00;;;;;;;;5074037;27;51285;-55
2022/09/22 09:29:43;;;;;;;;;13.00;13.00;;;;;;;;5081104;27;52281;-54
2022/09/22 09:32:25;;;;;;;;;13.00;13.00;;;;;;;;5073545;27;50962;-56
2022/09/22 09:34:50;;;;;;;;;13.00;12.50;;;;;;;;5073678;27;50948;-55
2022/09/22 09:37:16;;;;;;;;;11.50;10.50;;;;;;;;5073332;27;51015;-54
2022/09/22 09:39:43;;;;;;;;;12.75;12.25;;;;;;;;5072889;27;51899;-56
2022/09/22 09:42:22;;;;;;;;;13.00;12.75;;;;;;;;5073144;27;51135;-55
2022/09/22 09:44:52;;;;;;;;;14.75;14.50;;;;;;;;5072920;27;50909;-54
2022/09/22 09:47:23;;;;;;;;;14.25;14.25;;;;;;;;5073555;27;51083;-56
2022/09/22 09:49:53;;;;;;;;;15.25;14.50;;;;;;;;5072725;27;52006;-56
2022/09/22 09:52:19;;;;;;;;;41.00;35.75;;;;;;;;5076407;27;51032;-55
2022/09/22 09:54:46;;;;;;;;;15.25;15.00;;;;;;;;5076503;27;51024;-54
2022/09/22 09:57:13;;;;;;;;;12.25;11.75;;;;;;;;5071627;28;51223;-55
2022/09/22 10:02:28;;;;;;;;;13.00;12.00;;;;;;;;5079509;27;51125;-56
2022/09/22 10:04:55;;;;;;;;;13.75;12.25;;;;;;;;5072676;27;51114;-55
2022/09/22 10:07:26;;;;;;;;;12.50;12.00;;;;;;;;5073256;27;51164;-56
2022/09/22 10:09:52;;;;;;;;;15.75;15.00;;;;;;;;5071349;27;53094;-55
2022/09/22 10:12:23;;;;;;;;;4.33;3.33;;;;;;;;5072675;27;50970;-56
2022/09/22 10:14:50;;;;;;;;;11.50;10.50;;;;;;;;5072860;27;51008;-55
2022/09/22 10:17:36;;;;;;;;;9.75;9.75;;;;;;;;5073630;27;50997;-56
2022/09/22 10:20:21;;;;;;;;;12.50;12.25;;;;;;;;5071501;28;51946;-56
2022/09/22 10:22:46;;;;;;;;;8.67;8.67;;;;;;;;5072588;27;51024;-55
2022/09/22 10:25:20;;;;;;;;;12.33;9.00;;;;;;;;5072740;27;51048;-56
2022/09/22 10:28:08;;;;;;;;;6.00;6.00;;;;;;;;5072827;27;51409;-57
2022/09/22 10:30:37;;;;;;;;;5.00;5.00;;;;;;;;5089444;27;51482;-55
2022/09/22 10:33:13;;;;;;;;;4.00;3.33;;;;;;;;5092889;27;51111;-56
2022/09/22 10:35:40;;;;;;;;;2.00;2.00;;;;;;;;5092914;27;51297;-58
2022/09/22 10:38:20;;;;;;;;;3.67;3.33;;;;;;;;5092525;27;51101;-54
2022/09/22 10:40:47;;;;;;;;;2.67;2.67;;;;;;;;5083613;27;51115;-56
2022/09/22 10:43:36;;;;;;;;;3.00;3.00;;;;;;;;5070531;28;50930;-57
2022/09/22 10:46:21;;;;;;;;;3.00;3.00;;;;;;;;5071846;27;51123;-56
2022/09/22 10:48:52;;;;;;;;;5.00;5.00;;;;;;;;5070445;27;51047;-55
2022/09/22 10:51:24;;;;;;;;;5.00;4.00;;;;;;;;5071318;28;51770;-55
2022/09/22 10:54:12;;;;;;;;;6.00;5.00;;;;;;;;5079055;27;50969;-56
2022/09/22 10:56:42;;;;;;;;;5.33;4.67;;;;;;;;5078466;27;51090;-55
2022/09/22 10:59:13;;;;;;;;;3.67;3.67;;;;;;;;5071529;27;50965;-56
2022/09/22 11:01:57;;;;;;;;;4.33;4.33;;;;;;;;5077669;27;51080;-55
2022/09/22 11:04:29;;;;;;;;;5.00;4.33;;;;;;;;5071365;27;51071;-54
2022/09/22 11:13:03;;;;;;;;;2.33;2.33;;;;;;;;5092416;27;51595;-58
2022/09/22 11:15:31;;;;;;;;;1.67;1.00;;;;;;;;5092470;27;50995;-56
2022/09/22 11:18:17;;;;;;;;;1.67;1.67;;;;;;;;5072692;27;50953;-57
2022/09/22 11:20:45;;;;;;;;;1.50;1.50;;;;;;;;5071172;28;51300;-57
2022/09/22 11:23:16;;;;;;;;;3.67;3.00;;;;;;;;5075012;27;52437;-57
2022/09/22 11:25:56;;;;;;;;;2.67;2.67;;;;;;;;5075573;28;50989;-55
2022/09/22 11:28:21;;;;;;;;;5.00;5.00;;;;;;;;5075398;27;50943;-57
2022/09/22 11:30:49;;;;;;;;;2.00;2.00;;;;;;;;5094831;27;51156;-58
2022/09/22 11:33:33;;;;;;;;;3.00;3.00;;;;;;;;5095733;27;51283;-57
2022/09/22 11:36:02;;;;;;;;;2.00;2.00;;;;;;;;5095382;27;51015;-58
2022/09/22 11:38:33;;;;;;;;;3.00;3.00;;;;;;;;5094214;27;50975;-55
2022/09/22 11:41:06;;;;;;;;;3.67;3.67;;;;;;;;5096113;27;51013;-57
2022/09/22 11:43:40;;;;;;;;;5.67;5.00;;;;;;;;5063484;27;54101;-56
2022/09/22 11:46:19;;;;;;;;;3.00;2.33;;;;;;;;5095687;27;51012;-57
2022/09/22 11:49:03;;;;;;;;;2.67;2.00;;;;;;;;5095433;27;51096;-55
2022/09/22 11:51:31;;;;;;;;;2.00;2.00;;;;;;;;5095311;27;51426;-56
2022/09/22 11:54:15;;;;;;;;;2.00;2.00;;;;;;;;5085293;27;51034;-58
2022/09/22 11:56:43;;;;;;;;;2.67;2.67;;;;;;;;5074883;27;50986;-55
2022/09/22 11:59:18;;;;;;;;;3.00;3.00;;;;;;;;5075464;27;50938;-57
2022/09/22 12:01:45;;;;;;;;;5.00;4.67;;;;;;;;5082098;27;51313;-56
2022/09/22 12:04:18;;;;;;;;;3.33;3.00;;;;;;;;5074743;28;52040;-57
2022/09/22 12:06:48;;;;;;;;;3.33;3.33;;;;;;;;5074645;27;51022;-54
2022/09/22 12:09:22;;;;;;;;;4.67;4.67;;;;;;;;5073632;27;51187;-56
2022/09/22 12:11:48;;;;;;;;;4.00;3.67;;;;;;;;5074622;27;51010;-55
2022/09/22 12:14:14;;;;;;;;;5.33;5.33;;;;;;;;5073698;27;51131;-57
2022/09/22 12:16:53;;;;;;;;;2.00;2.00;;;;;;;;5076190;27;50934;-55
2022/09/22 12:19:21;;;;;;;;;3.00;3.00;;;;;;;;5073913;27;50875;-56
2022/09/22 12:21:46;;;;;;;;;3.00;3.00;;;;;;;;5074368;27;51072;-56
2022/09/22 12:24:11;;;;;;;;;3.00;2.67;;;;;;;;5073427;27;52067;-56
2022/09/22 12:26:37;;;;;;;;;2.00;2.00;;;;;;;;5074178;27;51072;-55
2022/09/22 12:29:07;;;;;;;;;2.33;2.33;;;;;;;;5078917;27;51124;-56
2022/09/22 12:31:38;;;;;;;;;1.00;1.00;;;;;;;;5094486;27;50768;-55
2022/09/22 12:34:05;;;;;;;;;3.00;3.00;;;;;;;;5094256;27;50973;-55
2022/09/22 12:36:35;;;;;;;;;3.00;2.67;;;;;;;;5094144;27;50971;-55
2022/09/22 12:39:10;;;;;;;;;4.00;4.00;;;;;;;;5094246;27;51084;-57
2022/09/22 12:41:47;;;;;;;;;3.00;3.00;;;;;;;;5093465;27;51359;-56
2022/09/22 12:44:16;;;;;;;;;3.00;3.00;;;;;;;;5093836;27;53046;-56
2022/09/22 12:46:41;;;;;;;;;3.00;3.00;;;;;;;;5094040;27;50914;-55
2022/09/22 12:49:08;;;;;;;;;3.00;3.00;;;;;;;;5094078;27;50958;-57
2022/09/22 12:51:33;;;;;;;;;3.33;3.00;;;;;;;;5093891;27;51281;-54
2022/09/22 12:54:37;;;;;;;;;3.33;3.00;;;;;;;;5081590;27;52063;-56
2022/09/22 12:57:05;;;;;;;;;0.00;0.00;;;;;;;;5079698;27;50885;-55
2022/09/22 12:59:36;;;;;;;;;3.67;3.00;;;;;;;;5091309;27;50946;-55
2022/09/22 13:02:14;;;;;;;;;5.67;4.33;;;;;;;;5083101;27;51210;-55
2022/09/22 13:04:40;;;;;;;;;5.00;5.00;;;;;;;;5073262;27;51041;-53
2022/09/22 13:07:24;;;;;;;;;3.33;3.00;;;;;;;;5073383;27;50970;-56
2022/09/22 13:10:09;;;;;;;;;4.00;3.00;;;;;;;;5073352;27;50862;-56
2022/09/22 13:12:34;;;;;;;;;5.67;4.00;;;;;;;;5073573;27;51488;-56
2022/09/22 13:15:05;;;;;;;;;3.00;3.00;;;;;;;;5073393;28;51235;-56
2022/09/22 13:17:31;;;;;;;;;3.00;3.00;;;;;;;;5074616;27;51112;-57
2022/09/22 13:19:56;;;;;;;;;4.00;3.00;;;;;;;;5073546;27;51041;-55
2022/09/22 13:22:22;;;;;;;;;2.33;2.33;;;;;;;;5073438;27;51132;-56
2022/09/22 13:24:47;;;;;;;;;3.00;2.67;;;;;;;;5073105;27;52299;-55
2022/09/22 13:27:13;;;;;;;;;2.33;2.33;;;;;;;;5073142;27;50890;-54
2022/09/22 13:29:38;;;;;;;;;2.00;2.00;;;;;;;;5083347;27;50986;-55
2022/09/22 13:32:14;;;;;;;;;4.00;4.00;;;;;;;;5093654;27;50962;-55
2022/09/22 13:34:40;;;;;;;;;2.33;2.33;;;;;;;;5093553;27;51957;-55
2022/09/22 13:37:06;;;;;;;;;2.33;2.00;;;;;;;;5093467;27;50952;-56
2022/09/22 13:39:51;;;;;;;;;3.67;2.67;;;;;;;;5093463;27;51106;-54
2022/09/22 13:42:21;;;;;;;;;2.00;2.00;;;;;;;;5093656;27;51010;-55
2022/09/22 13:44:51;;;;;;;;;4.00;3.00;;;;;;;;5092740;27;51253;-54
2022/09/22 13:47:19;;;;;;;;;3.00;3.00;;;;;;;;5093545;27;51029;-55
2022/09/22 13:49:54;;;;;;;;;2.00;2.00;;;;;;;;5093058;27;51064;-55
2022/09/22 13:52:21;;;;;;;;;3.67;3.00;;;;;;;;5093058;27;51139;-55
2022/09/22 13:54:53;;;;;;;;;4.67;4.00;;;;;;;;5075475;27;52362;-54
2022/09/22 13:57:20;;;;;;;;;3.33;3.33;;;;;;;;5072138;27;51040;-56
2022/09/22 13:59:45;;;;;;;;;3.00;3.00;;;;;;;;5072551;27;51080;-54
2022/09/22 14:02:11;;;;;;;;;4.00;4.00;;;;;;;;5078483;27;50853;-55
2022/09/22 14:04:37;;;;;;;;;5.67;4.00;;;;;;;;5072371;27;51847;-56
2022/09/22 14:07:06;;;;;;;;;4.00;4.00;;;;;;;;5072808;27;50994;-54
2022/09/22 14:09:32;;;;;;;;;5.33;5.00;;;;;;;;5071231;28;51053;-55
2022/09/22 14:12:00;;;;;;;;;3.67;3.33;;;;;;;;5069779;28;51460;-55
2022/09/22 14:14:26;;;;;;;;;4.00;4.00;;;;;;;;5069780;28;52664;-55
2022/09/22 14:16:51;;;;;;;;;1.00;1.00;;;;;;;;5072534;27;51341;-56
2022/09/22 14:19:28;;;;;;;;;5.00;4.25;;;;;;;;5071138;27;51172;-55
2022/09/22 14:22:01;;;;;;;;;2.00;2.00;;;;;;;;5069569;28;51190;-56
2022/09/22 14:24:27;;;;;;;;;3.00;3.00;;;;;;;;5068445;27;51549;-54
2022/09/22 14:26:58;;;;;;;;;2.67;2.33;;;;;;;;5070843;27;50923;-55
2022/09/22 14:29:23;;;;;;;;;3.00;3.00;;;;;;;;5078778;27;50988;-55
2022/09/22 14:31:52;;;;;;;;;2.00;2.00;;;;;;;;5091279;27;51281;-56
2022/09/22 14:34:24;;;;;;;;;2.33;2.00;;;;;;;;5090983;27;52802;-55
2022/09/22 14:36:50;;;;;;;;;4.50;3.00;;;;;;;;5090866;27;51118;-56
2022/09/22 14:39:18;;;;;;;;;2.33;2.33;;;;;;;;5091010;27;50859;-57
2022/09/22 14:41:57;;;;;;;;;5.00;5.00;;;;;;;;5090441;27;51201;-54
2022/09/22 14:44:34;;;;;;;;;3.00;2.00;;;;;;;;5090662;27;52067;-54
2022/09/22 14:47:06;;;;;;;;;5.00;4.00;;;;;;;;5089430;27;51002;-56
2022/09/22 14:49:43;;;;;;;;;3.00;3.00;;;;;;;;5091174;27;51098;-56
2022/09/22 14:52:29;;;;;;;;;3.00;3.00;;;;;;;;5091350;27;50922;-54
2022/09/22 14:54:57;;;;;;;;;3.67;3.67;;;;;;;;5072383;27;52050;-56
2022/09/22 14:57:23;;;;;;;;;4.00;3.33;;;;;;;;5069702;28;50927;-56
2022/09/22 15:02:40;;;;;;;;;2.00;2.00;;;;;;;;5070290;28;51129;-55